createdAt,value
2023-03-11T00:02:21.805Z,21.92
2023-03-11T00:08:44.020Z,16.55
2023-03-11T00:11:23.459Z,17.10
2023-03-11T00:19:49.537Z,21.30
2023-03-11T00:22:16.498Z,13.85
2023-03-11T00:24:43.126Z,22.40
2023-03-11T00:27:10.392Z,15.55
2023-03-11T00:29:37.075Z,26.20
2023-03-11T00:32:04.450Z,20.30
2023-03-11T00:34:31.426Z,18.65
2023-03-11T00:36:59.282Z,16.73
2023-03-11T00:39:26.678Z,21.65
2023-03-11T00:41:54.373Z,13.80
2023-03-11T00:44:21.426Z,10.00
2023-03-11T00:46:48.727Z,16.65
2023-03-11T00:49:16.391Z,16.38
2023-03-11T00:51:45.077Z,13.93
2023-03-11T00:54:11.822Z,25.58
2023-03-11T00:56:39.771Z,12.55
2023-03-11T00:59:06.487Z,29.75
2023-03-11T01:01:34.114Z,15.10
2023-03-11T01:04:00.780Z,19.75
2023-03-11T01:06:39.197Z,23.15
2023-03-11T01:09:11.566Z,21.13
2023-03-11T01:11:38.866Z,12.00
2023-03-11T01:14:05.757Z,14.52
2023-03-11T01:16:33.030Z,23.52
2023-03-11T01:18:59.696Z,23.33
2023-03-11T01:21:26.959Z,12.27
2023-03-11T01:23:53.690Z,11.52
2023-03-11T01:26:20.921Z,20.13
2023-03-11T01:28:47.623Z,11.98
2023-03-11T01:31:15.156Z,18.73
2023-03-11T01:33:41.906Z,17.17
2023-03-11T01:36:09.598Z,17.00
2023-03-11T01:38:36.352Z,14.63
2023-03-11T01:41:03.885Z,17.10
2023-03-11T01:43:45.825Z,21.60
2023-03-11T01:46:26.759Z,18.05
2023-03-11T01:49:02.672Z,22.17
2023-03-11T01:51:36.045Z,14.95
2023-03-11T01:54:18.201Z,15.45
2023-03-11T01:56:46.749Z,19.20
2023-03-11T01:59:17.394Z,14.88
2023-03-11T02:01:53.041Z,15.32
2023-03-11T02:04:21.143Z,13.15
2023-03-11T02:06:48.508Z,23.60
2023-03-11T02:09:15.146Z,16.30
2023-03-11T02:11:42.723Z,18.83
2023-03-11T02:14:10.044Z,11.20
2023-03-11T02:16:37.454Z,20.02
2023-03-11T02:19:39.224Z,10.82
2023-03-11T02:22:07.140Z,15.52
2023-03-11T02:24:40.873Z,14.80
2023-03-11T02:27:13.771Z,15.25
2023-03-11T02:29:41.948Z,27.05
2023-03-11T02:32:10.528Z,9.40
2023-03-11T02:34:42.026Z,20.58
2023-03-11T02:37:15.752Z,19.00
2023-03-11T02:39:49.528Z,13.48
2023-03-11T02:42:24.118Z,16.92
2023-03-11T02:45:03.128Z,19.25
2023-03-11T02:47:31.338Z,11.40
2023-03-11T02:49:58.004Z,10.07
2023-03-11T02:52:27.970Z,13.80
2023-03-11T02:54:55.253Z,18.67
2023-03-11T02:57:22.506Z,17.88
2023-03-11T02:59:49.212Z,16.63
2023-03-11T03:02:16.977Z,17.77
2023-03-11T03:04:44.368Z,13.38
2023-03-11T03:07:11.949Z,13.55
2023-03-11T03:09:38.692Z,11.48
2023-03-11T03:12:06.741Z,9.25
2023-03-11T03:14:34.766Z,21.20
2023-03-11T03:17:02.054Z,10.95
2023-03-11T03:19:28.899Z,16.88
2023-03-11T03:21:56.198Z,10.27
2023-03-11T03:24:23.875Z,14.40
2023-03-11T03:26:52.200Z,12.90
2023-03-11T03:29:19.138Z,11.02
2023-03-11T03:31:48.253Z,12.30
2023-03-11T03:34:15.392Z,19.23
2023-03-11T03:36:42.660Z,12.48
2023-03-11T03:39:09.383Z,12.23
2023-03-11T03:41:37.772Z,8.88
2023-03-11T03:44:05.525Z,17.10
2023-03-11T03:46:34.725Z,25.02
2023-03-11T03:49:02.994Z,13.82
2023-03-11T03:51:31.701Z,18.77
2023-03-11T03:54:20.973Z,16.02
2023-03-11T03:56:48.613Z,12.57
2023-03-11T03:59:15.435Z,13.13
2023-03-11T04:01:48.607Z,12.52
2023-03-11T04:04:16.739Z,8.98
2023-03-11T04:06:43.760Z,17.50
2023-03-11T04:09:11.786Z,9.35
2023-03-11T04:11:39.309Z,13.40
2023-03-11T04:14:06.831Z,10.50
2023-03-11T04:19:10.691Z,12.98
2023-03-11T04:21:38.368Z,13.57
2023-03-11T04:24:06.040Z,9.10
2023-03-11T04:26:36.516Z,14.68
2023-03-11T04:29:04.735Z,9.40
2023-03-11T04:31:37.648Z,16.33
2023-03-11T04:34:06.377Z,10.85
2023-03-11T04:36:33.754Z,13.43
2023-03-11T04:39:00.787Z,12.70
2023-03-11T04:41:31.966Z,10.93
2023-03-11T04:44:01.942Z,13.70
2023-03-11T04:46:29.609Z,12.48
2023-03-11T04:48:58.756Z,10.15
2023-03-11T04:51:26.523Z,11.60
2023-03-11T04:53:53.458Z,15.30
2023-03-11T04:56:20.940Z,8.80
2023-03-11T04:58:48.148Z,12.20
2023-03-11T05:01:15.784Z,7.22
2023-03-11T05:03:42.488Z,16.90
2023-03-11T05:06:11.117Z,10.98
2023-03-11T05:08:37.943Z,11.77
2023-03-11T05:11:05.573Z,10.27
2023-03-11T05:13:32.301Z,19.58
2023-03-11T05:15:59.860Z,19.88
2023-03-11T05:18:26.814Z,13.82
2023-03-11T05:20:54.639Z,20.40
2023-03-11T05:23:25.344Z,13.68
2023-03-11T05:25:53.223Z,20.65
2023-03-11T05:28:20.002Z,14.88
2023-03-11T05:30:51.027Z,9.93
2023-03-11T05:33:18.584Z,11.93
2023-03-11T05:35:47.113Z,13.48
2023-03-11T05:38:14.429Z,8.65
2023-03-11T05:40:41.763Z,18.48
2023-03-11T05:43:08.509Z,10.52
2023-03-11T05:45:39.056Z,14.43
2023-03-11T05:48:06.814Z,13.18
2023-03-11T05:50:36.035Z,12.20
2023-03-11T05:53:03.283Z,15.32
2023-03-11T05:55:31.603Z,13.68
2023-03-11T05:57:59.288Z,18.05
2023-03-11T06:00:29.590Z,10.98
2023-03-11T06:02:58.688Z,12.63
2023-03-11T06:05:26.076Z,15.30
2023-03-11T06:07:54.439Z,16.30
2023-03-11T06:10:22.990Z,17.27
2023-03-11T06:12:49.715Z,13.25
2023-03-11T06:15:24.300Z,11.65
2023-03-11T06:17:52.615Z,16.05
2023-03-11T06:20:20.318Z,13.73
2023-03-11T06:22:50.608Z,14.07
2023-03-11T06:25:19.062Z,13.77
2023-03-11T06:27:52.279Z,12.30
2023-03-11T06:30:21.179Z,15.68
2023-03-11T06:33:00.602Z,10.82
2023-03-11T06:35:28.339Z,21.23
2023-03-11T06:37:55.554Z,14.63
2023-03-11T06:40:22.909Z,10.93
2023-03-11T06:42:49.628Z,12.95
2023-03-11T06:45:20.641Z,11.32
2023-03-11T06:47:48.075Z,16.48
2023-03-11T06:50:15.652Z,10.82
2023-03-11T06:52:43.405Z,11.57
2023-03-11T06:55:10.740Z,7.55
2023-03-11T06:57:37.412Z,11.43
2023-03-11T07:00:12.470Z,11.35
2023-03-11T07:02:42.272Z,17.45
2023-03-11T07:05:10.480Z,19.33
2023-03-11T07:07:38.412Z,11.02
2023-03-11T07:10:06.732Z,14.77
2023-03-11T07:12:33.362Z,14.90
2023-03-11T07:15:01.380Z,12.98
2023-03-11T07:17:29.330Z,10.23
2023-03-11T07:19:56.796Z,11.27
2023-03-11T07:22:23.448Z,12.73
2023-03-11T07:24:50.859Z,12.02
2023-03-11T07:27:17.739Z,18.88
2023-03-11T07:29:45.338Z,13.35
2023-03-11T07:32:12.124Z,8.35
2023-03-11T07:34:39.498Z,9.30
2023-03-11T07:37:06.142Z,13.85
2023-03-11T07:39:33.395Z,12.98
2023-03-11T07:42:00.022Z,10.27
2023-03-11T07:44:34.808Z,9.15
2023-03-11T07:47:05.700Z,11.02
2023-03-11T07:49:33.845Z,19.77
2023-03-11T07:52:00.503Z,8.77
2023-03-11T07:54:27.718Z,8.30
2023-03-11T07:56:54.349Z,16.15
2023-03-11T07:59:21.642Z,10.93
2023-03-11T08:01:48.270Z,10.10
2023-03-11T08:04:17.260Z,9.35
2023-03-11T08:06:46.566Z,9.35
2023-03-11T08:09:14.223Z,18.25
2023-03-11T08:11:41.189Z,11.50
2023-03-11T08:14:08.574Z,15.25
2023-03-11T08:16:35.258Z,8.52
2023-03-11T08:19:02.613Z,14.55
2023-03-11T08:21:31.875Z,11.23
2023-03-11T08:24:01.769Z,8.15
2023-03-11T08:26:28.664Z,15.00
2023-03-11T08:28:57.015Z,11.20
2023-03-11T08:31:26.201Z,9.80
2023-03-11T08:33:56.631Z,7.90
2023-03-11T08:36:23.562Z,9.48
2023-03-11T08:38:50.907Z,10.43
2023-03-11T08:41:17.915Z,9.32
2023-03-11T08:43:45.498Z,10.27
2023-03-11T08:46:27.580Z,11.85
2023-03-11T08:48:55.435Z,15.27
2023-03-11T08:51:23.753Z,11.00
2023-03-11T08:53:51.918Z,9.07
2023-03-11T08:56:18.817Z,8.57
2023-03-11T08:58:46.367Z,7.88
2023-03-11T09:01:13.735Z,6.90
2023-03-11T09:03:41.334Z,12.57
2023-03-11T09:06:13.688Z,8.63
2023-03-11T09:08:41.958Z,10.15
2023-03-11T09:11:09.692Z,14.18
2023-03-11T09:13:36.986Z,9.10
2023-03-11T09:16:05.737Z,12.98
2023-03-11T09:18:33.110Z,11.00
2023-03-11T09:21:00.690Z,7.82
2023-03-11T09:23:27.971Z,8.38
2023-03-11T09:25:54.673Z,10.40
2023-03-11T09:28:21.955Z,13.13
2023-03-11T09:30:48.556Z,13.48
2023-03-11T09:33:15.506Z,9.88
2023-03-11T09:35:42.259Z,11.15
2023-03-11T09:38:09.592Z,10.15
2023-03-11T09:41:02.503Z,4.88
2023-03-11T09:43:41.068Z,10.68
2023-03-11T09:46:40.218Z,8.77
2023-03-11T09:49:33.487Z,8.57
2023-03-11T09:52:15.573Z,7.15
2023-03-11T09:54:47.483Z,8.45
2023-03-11T09:57:25.088Z,9.95
2023-03-11T09:59:52.270Z,10.20
2023-03-11T10:02:22.026Z,6.43
2023-03-11T10:05:15.446Z,9.52
2023-03-11T10:07:46.988Z,8.25
2023-03-11T10:10:15.545Z,13.93
2023-03-11T10:13:00.960Z,8.60
2023-03-11T10:15:55.668Z,6.40
2023-03-11T10:18:54.228Z,6.18
2023-03-11T10:21:41.060Z,7.90
2023-03-11T10:24:32.661Z,11.48
2023-03-11T10:27:03.188Z,4.63
2023-03-11T10:29:51.170Z,6.18
2023-03-11T10:32:32.398Z,12.27
2023-03-11T10:35:16.719Z,7.70
2023-03-11T10:37:51.971Z,6.90
2023-03-11T10:40:38.331Z,5.00
2023-03-11T10:43:13.093Z,8.68
2023-03-11T10:45:45.013Z,7.25
2023-03-11T10:48:17.118Z,5.03
2023-03-11T10:51:11.146Z,10.57
2023-03-11T10:53:46.395Z,8.05
2023-03-11T10:56:28.187Z,3.97
2023-03-11T10:58:55.154Z,5.38
2023-03-11T11:01:22.814Z,3.25
2023-03-11T11:03:57.460Z,8.93
2023-03-11T11:06:27.719Z,10.95
2023-03-11T11:09:15.708Z,9.15
2023-03-11T11:12:00.619Z,5.88
2023-03-11T11:14:51.409Z,11.30
2023-03-11T11:17:34.156Z,10.32
2023-03-11T11:20:12.958Z,4.00
2023-03-11T11:22:55.578Z,7.40
2023-03-11T11:25:31.859Z,4.35
2023-03-11T11:28:02.721Z,8.98
2023-03-11T11:30:29.827Z,4.97
2023-03-11T11:32:57.241Z,9.73
2023-03-11T11:35:25.316Z,14.73
2023-03-11T11:38:01.190Z,6.22
2023-03-11T11:40:33.486Z,6.70
2023-03-11T11:43:14.274Z,7.35
2023-03-11T11:45:45.339Z,7.13
2023-03-11T11:48:45.075Z,4.70
2023-03-11T11:51:59.943Z,8.88
2023-03-11T11:54:43.308Z,6.88
2023-03-11T11:57:20.466Z,8.75
2023-03-11T11:59:47.985Z,10.88
2023-03-11T12:02:50.211Z,8.85
2023-03-11T12:05:19.964Z,10.52
2023-03-11T12:08:12.223Z,8.40
2023-03-11T12:11:02.440Z,6.82
2023-03-11T12:13:41.832Z,16.92
2023-03-11T12:17:03.890Z,6.03
2023-03-11T12:19:51.938Z,6.57
2023-03-11T12:22:24.481Z,6.93
2023-03-11T12:25:03.149Z,5.85
2023-03-11T12:27:50.161Z,5.63
2023-03-11T12:30:27.030Z,4.63
2023-03-11T12:33:03.704Z,7.07
2023-03-11T12:35:35.648Z,7.18
2023-03-11T12:38:14.650Z,5.18
2023-03-11T12:41:05.934Z,9.02
2023-03-11T12:43:35.885Z,3.15
2023-03-11T12:46:17.731Z,10.15
2023-03-11T12:49:13.307Z,2.90
2023-03-11T12:51:41.076Z,5.82
2023-03-11T12:54:28.804Z,8.82
2023-03-11T12:56:58.904Z,5.97
2023-03-11T12:59:49.912Z,8.60
2023-03-11T13:02:44.442Z,6.43
2023-03-11T13:05:39.894Z,6.63
2023-03-11T13:08:14.716Z,9.88
2023-03-11T13:10:47.548Z,6.35
2023-03-11T13:13:42.335Z,8.02
2023-03-11T13:16:32.590Z,7.78
2023-03-11T13:19:34.628Z,7.32
2023-03-11T13:22:03.699Z,12.63
2023-03-11T13:24:30.898Z,10.75
2023-03-11T13:27:04.436Z,8.05
2023-03-11T13:29:52.265Z,5.25
2023-03-11T13:32:47.201Z,11.23
2023-03-11T13:35:23.484Z,9.40
2023-03-11T13:38:30.863Z,6.03
2023-03-11T13:41:00.560Z,8.63
2023-03-11T13:43:27.240Z,4.35
2023-03-11T13:46:20.698Z,6.70
2023-03-11T13:48:50.680Z,3.58
2023-03-11T13:51:27.403Z,9.73
2023-03-11T13:54:02.834Z,8.60
2023-03-11T13:56:33.936Z,5.22
2023-03-11T13:59:23.687Z,5.43
2023-03-11T14:01:52.542Z,7.38
2023-03-11T14:04:28.753Z,14.45
2023-03-11T14:06:56.164Z,6.90
2023-03-11T14:09:25.439Z,6.88
2023-03-11T14:11:54.769Z,3.95
2023-03-11T14:14:53.428Z,7.80
2023-03-11T14:17:20.780Z,6.18
2023-03-11T14:20:12.085Z,5.88
2023-03-11T14:22:38.859Z,4.18
2023-03-11T14:25:09.075Z,5.32
2023-03-11T14:27:39.239Z,11.65
2023-03-11T14:30:07.262Z,11.45
2023-03-11T14:32:35.135Z,7.95
2023-03-11T14:35:02.315Z,4.38
2023-03-11T14:37:37.390Z,6.72
2023-03-11T14:40:22.726Z,7.03
2023-03-11T14:42:53.732Z,9.95
2023-03-11T14:45:25.607Z,6.53
2023-03-11T14:47:59.165Z,5.53
2023-03-11T14:50:30.583Z,4.45
2023-03-11T14:53:13.756Z,3.20
2023-03-11T14:58:30.929Z,5.25
2023-03-11T15:01:24.816Z,10.73
2023-03-11T15:04:12.527Z,4.18
2023-03-11T15:06:43.924Z,6.32
2023-03-11T15:09:10.485Z,6.35
2023-03-11T15:11:59.450Z,5.97
2023-03-11T15:14:27.636Z,4.95
2023-03-11T15:17:08.428Z,5.53
2023-03-11T15:19:35.201Z,5.68
2023-03-11T15:22:39.603Z,3.75
2023-03-11T15:25:19.441Z,5.78
2023-03-11T15:27:46.625Z,3.60
2023-03-11T15:30:31.942Z,5.85
2023-03-11T15:32:59.387Z,3.88
2023-03-11T15:35:31.030Z,5.35
2023-03-11T15:38:23.453Z,4.22
2023-03-11T15:41:00.897Z,5.73
2023-03-11T15:43:31.831Z,5.93
2023-03-11T15:46:02.283Z,2.72
2023-03-11T15:48:29.994Z,6.95
2023-03-11T15:50:59.675Z,8.98
2023-03-11T15:53:27.801Z,6.68
2023-03-11T15:56:06.563Z,9.02
2023-03-11T15:58:37.257Z,9.18
2023-03-11T16:01:04.000Z,11.30
2023-03-11T16:03:31.684Z,9.80
2023-03-11T16:05:58.517Z,6.38
2023-03-11T16:08:25.559Z,5.22
2023-03-11T16:10:52.298Z,7.15
2023-03-11T16:13:19.624Z,7.57
2023-03-11T16:15:47.095Z,4.18
2023-03-11T16:18:14.467Z,5.65
2023-03-11T16:20:47.741Z,11.60
2023-03-11T16:23:25.210Z,15.80
2023-03-11T16:25:56.506Z,7.75
2023-03-11T16:28:23.819Z,7.90
2023-03-11T16:30:51.448Z,5.72
2023-03-11T16:33:18.553Z,6.30
2023-03-11T16:35:46.112Z,6.63
2023-03-11T16:38:13.483Z,5.30
2023-03-11T16:40:40.350Z,12.15
2023-03-11T16:43:13.752Z,6.97
2023-03-11T16:45:40.390Z,11.00
2023-03-11T16:48:07.525Z,4.07
2023-03-11T16:50:37.235Z,8.38
2023-03-11T16:53:05.243Z,6.53
2023-03-11T16:55:32.181Z,27.90
2023-03-11T16:57:59.273Z,23.33
2023-03-11T17:00:26.114Z,18.35
2023-03-11T17:02:53.518Z,13.32
2023-03-11T17:05:21.444Z,6.85
2023-03-11T17:07:48.861Z,39.65
2023-03-11T17:10:15.662Z,29.17
2023-03-11T17:12:42.949Z,28.98
2023-03-11T17:15:09.890Z,18.13
2023-03-11T17:17:37.130Z,20.45
2023-03-11T17:20:06.121Z,39.30
2023-03-11T17:22:33.650Z,46.58
2023-03-11T17:25:00.334Z,53.63
2023-03-11T17:27:32.287Z,50.97
2023-03-11T17:30:00.492Z,67.18
2023-03-11T17:32:28.002Z,72.65
2023-03-11T17:34:54.922Z,92.47
2023-03-11T17:37:22.587Z,76.68
2023-03-11T17:39:49.244Z,48.60
2023-03-11T17:42:16.253Z,64.68
2023-03-11T17:44:51.404Z,36.78
2023-03-11T17:47:20.400Z,22.73
2023-03-11T17:49:48.439Z,16.58
2023-03-11T17:52:15.414Z,8.45
2023-03-11T17:54:42.084Z,6.75
2023-03-11T17:57:09.353Z,7.55
2023-03-11T17:59:36.084Z,11.27
2023-03-11T18:02:03.119Z,9.18
2023-03-11T18:04:29.790Z,6.18
2023-03-11T18:06:56.993Z,7.75
2023-03-11T18:09:23.634Z,6.70
2023-03-11T18:11:50.870Z,7.15
2023-03-11T18:14:17.504Z,4.60
2023-03-11T18:16:44.880Z,7.75
2023-03-11T18:19:11.500Z,5.60
2023-03-11T18:21:38.789Z,5.50
2023-03-11T18:24:05.872Z,6.18
2023-03-11T18:26:33.196Z,23.45
2023-03-11T18:29:00.371Z,19.98
2023-03-11T18:31:29.383Z,11.48
2023-03-11T18:33:59.125Z,9.10
2023-03-11T18:36:31.796Z,11.73
2023-03-11T18:39:00.352Z,6.30
2023-03-11T18:41:30.330Z,6.15
2023-03-11T18:43:57.522Z,14.23
2023-03-11T18:46:26.534Z,9.52
2023-03-11T18:48:54.290Z,8.52
2023-03-11T18:51:21.543Z,13.52
2023-03-11T18:53:48.251Z,13.30
2023-03-11T18:56:18.555Z,11.68
2023-03-11T18:58:45.439Z,11.35
2023-03-11T19:01:14.495Z,9.35
2023-03-11T19:03:42.472Z,15.18
2023-03-11T19:06:11.182Z,11.55
2023-03-11T19:08:38.373Z,14.63
2023-03-11T19:11:15.213Z,8.40
2023-03-11T19:13:47.035Z,13.10
2023-03-11T19:16:17.878Z,6.00
2023-03-11T19:18:44.588Z,10.15
2023-03-11T19:21:13.461Z,9.77
2023-03-11T19:23:40.455Z,11.60
2023-03-11T19:26:08.089Z,9.38
2023-03-11T19:28:35.297Z,9.63
2023-03-11T19:31:02.981Z,12.82
2023-03-11T19:33:29.834Z,8.30
2023-03-11T19:35:59.820Z,7.78
2023-03-11T19:38:27.072Z,7.22
2023-03-11T19:41:00.233Z,12.07
2023-03-11T19:45:54.301Z,6.93
2023-03-11T19:48:21.070Z,13.82
2023-03-11T19:50:49.397Z,7.95
2023-03-11T19:53:16.825Z,7.82
2023-03-11T19:55:45.824Z,10.35
2023-03-11T19:58:12.729Z,12.32
2023-03-11T20:00:41.722Z,9.18
2023-03-11T20:03:09.865Z,6.97
2023-03-11T20:05:39.104Z,18.27
2023-03-11T20:08:06.697Z,16.20
2023-03-11T20:10:37.452Z,14.02
2023-03-11T20:13:04.167Z,9.38
2023-03-11T20:15:31.430Z,9.52
2023-03-11T20:17:58.447Z,7.75
2023-03-11T20:20:25.827Z,8.18
2023-03-11T20:22:52.498Z,7.55
2023-03-11T20:25:19.969Z,12.77
2023-03-11T20:27:46.593Z,11.60
2023-03-11T20:30:14.700Z,11.10
2023-03-11T20:32:41.371Z,11.43
2023-03-11T20:35:08.696Z,11.15
2023-03-11T20:37:35.359Z,9.57
2023-03-11T20:40:03.221Z,11.45
2023-03-11T20:42:32.190Z,14.15
2023-03-11T20:44:59.299Z,15.27
2023-03-11T20:47:25.910Z,15.95
2023-03-11T20:49:53.770Z,15.80
2023-03-11T20:52:20.506Z,17.13
2023-03-11T20:54:47.835Z,13.95
2023-03-11T20:57:14.536Z,14.82
2023-03-11T20:59:41.614Z,13.02
2023-03-11T21:02:11.011Z,20.55
2023-03-11T21:04:41.331Z,17.27
2023-03-11T21:07:08.096Z,13.48
2023-03-11T21:09:35.432Z,20.58
2023-03-11T21:12:02.130Z,17.85
2023-03-11T21:14:29.238Z,18.90
2023-03-11T21:16:55.948Z,17.88
2023-03-11T21:19:23.294Z,19.25
2023-03-11T21:21:50.090Z,15.50
2023-03-11T21:24:17.045Z,18.65
2023-03-11T21:26:43.749Z,17.75
2023-03-11T21:29:10.513Z,20.35
2023-03-11T21:31:37.368Z,15.43
2023-03-11T21:34:04.748Z,15.90
2023-03-11T21:36:31.461Z,16.90
2023-03-11T21:38:58.506Z,24.13
2023-03-11T21:41:27.023Z,24.05
2023-03-11T21:43:56.169Z,56.05
2023-03-11T21:46:26.246Z,40.25
2023-03-11T21:48:53.878Z,39.75
2023-03-11T21:51:21.530Z,24.83
2023-03-11T21:53:49.008Z,26.08
2023-03-11T21:56:15.982Z,22.73
2023-03-11T21:58:43.550Z,50.95
2023-03-11T22:01:10.723Z,41.92
2023-03-11T22:03:38.699Z,60.03
2023-03-11T22:06:09.366Z,35.85
2023-03-11T22:08:37.127Z,29.13
2023-03-11T22:11:07.996Z,35.45
2023-03-11T22:13:35.471Z,27.35
2023-03-11T22:16:06.691Z,28.45
2023-03-11T22:18:33.927Z,19.40
2023-03-11T22:21:01.309Z,23.85
2023-03-11T22:23:28.616Z,20.10
2023-03-11T22:25:55.339Z,23.10
2023-03-11T22:28:22.655Z,16.70
2023-03-11T22:30:49.329Z,16.63
2023-03-11T22:33:16.678Z,23.90
2023-03-11T22:35:59.248Z,12.60
2023-03-11T22:38:26.550Z,24.83
2023-03-11T22:40:53.151Z,24.88
2023-03-11T22:43:20.120Z,16.52
2023-03-11T22:45:47.032Z,21.08
2023-03-11T22:48:13.791Z,16.65
2023-03-11T22:50:41.873Z,16.15
2023-03-11T22:53:09.208Z,26.35
2023-03-11T22:55:43.817Z,16.73
2023-03-11T22:58:12.278Z,15.80
2023-03-11T23:00:39.026Z,20.92
2023-03-11T23:03:06.658Z,22.90
2023-03-11T23:05:40.575Z,22.13
2023-03-11T23:08:10.242Z,21.35
2023-03-11T23:10:38.899Z,18.40
2023-03-11T23:13:06.150Z,11.63
2023-03-11T23:15:32.760Z,19.77
2023-03-11T23:18:00.034Z,23.08
2023-03-11T23:20:26.659Z,30.00
2023-03-11T23:22:54.061Z,27.73
2023-03-11T23:25:20.807Z,17.13
2023-03-11T23:27:48.099Z,29.10
2023-03-11T23:30:16.573Z,17.42
2023-03-11T23:32:44.935Z,19.90
2023-03-11T23:35:12.466Z,15.93
2023-03-11T23:37:39.984Z,18.15
2023-03-11T23:40:07.734Z,16.05
2023-03-11T23:42:35.420Z,13.95
2023-03-11T23:45:02.096Z,17.98
2023-03-11T23:47:29.522Z,9.55
2023-03-11T23:49:56.165Z,21.25
2023-03-11T23:52:23.440Z,12.55
2023-03-11T23:54:50.093Z,21.92
2023-03-11T23:57:17.335Z,12.73
2023-03-11T23:59:44.356Z,15.25
